Terminal Aerodrome Forecast
Issued by NWS

Home | Current Version | Previous Version | Text Only | Print | Product List | Glossary On
Versions: 1 2 3 4 5 6 7 8 9 10 11 12
000
FTUS46 KHNX 250537
TAFFAT
TAF
KFAT 250537Z 2506/2606 32010G20KT P6SM SCT120
     FM251000 VRB05KT P6SM OVC090
     FM251400 VRB05KT P6SM -SHRA OVC050
     FM252100 30009KT P6SM BKN050=

USA.gov is the U.S. government's official web portal to all federal, state and local government web resources and services.